Time;durP1;ratioP1;P1;durP2;ratioP2;P2;SDS_P1;SDS_P2;PMS_P1;PMS_P2;Temp;Humidity;BMP_temperature;BMP_pressure;BME280_temperature;BME280_humidity;BME280_pressure;Samples;Min_cycle;Max_cycle;Signal;HPM_P1;HPM_P2
2024/01/23 00:00:20;;;;;;;;;;;;;;;7.00;100.00;101590.91;4997094;28;19921;-70
2024/01/23 00:02:45;;;;;;;;;;;;;;;7.03;100.00;101602.28;4996205;28;19917;-70
2024/01/23 00:05:10;;;;;;;;;;;;;;;6.97;100.00;101607.09;4994846;28;19926;-71
2024/01/23 00:07:36;;;;;;;;;;;;;;;6.99;100.00;101610.53;4980050;28;19991;-71
2024/01/23 00:10:01;;;;;;;;;;;;;;;7.03;100.00;101614.75;5000103;28;20376;-70
2024/01/23 00:12:26;;;;;;;;;;;;;;;6.92;100.00;101627.81;4996563;28;20445;-71
2024/01/23 00:14:51;;;;;;;;;;;;;;;7.08;100.00;101614.56;4994384;28;19921;-70
2024/01/23 00:17:16;;;;;;;;;;;;;;;6.84;100.00;101594.34;4997480;28;20251;-71
2024/01/23 00:19:42;;;;;;;;;;;;;;;7.02;100.00;101637.06;4998070;28;20456;-71
2024/01/23 00:22:07;;;;;;;;;;;;;;;7.05;100.00;101658.28;4993461;28;19928;-71
2024/01/23 00:24:32;;;;;;;;;;;;;;;7.13;100.00;101648.09;4997560;28;19932;-71
2024/01/23 00:26:57;;;;;;;;;;;;;;;7.10;100.00;101634.88;4994571;28;19926;-70
2024/01/23 00:29:22;;;;;;;;;;;;;;;7.05;100.00;101637.78;4990243;28;19922;-70
2024/01/23 00:31:48;;;;;;;;;;;;;;;7.02;100.00;101643.28;4997535;28;20023;-70
2024/01/23 00:34:13;;;;;;;;;;;;;;;7.07;100.00;101629.69;4998005;28;19963;-71
2024/01/23 00:36:38;;;;;;;;;;;;;;;7.23;100.00;101652.97;4994574;28;19921;-71
2024/01/23 00:39:03;;;;;;;;;;;;;;;7.24;100.00;101655.56;4996801;28;19941;-71
2024/01/23 00:41:29;;;;;;;;;;;;;;;7.22;100.00;101653.91;4995916;28;19925;-70
2024/01/23 00:43:54;;;;;;;;;;;;;;;7.08;100.00;101666.13;4995301;28;20138;-70
2024/01/23 00:46:19;;;;;;;;;;;;;;;7.11;100.00;101676.66;4997839;28;19929;-71
2024/01/23 00:48:44;;;;;;;;;;;;;;;7.13;100.00;101665.94;4998286;28;19925;-70
2024/01/23 00:51:09;;;;;;;;;;;;;;;7.09;100.00;101686.56;4995568;28;19922;-70
2024/01/23 00:53:35;;;;;;;;;;;;;;;7.05;100.00;101691.19;4997329;28;19932;-70
2024/01/23 00:56:00;;;;;;;;;;;;;;;7.00;100.00;101692.38;4996220;28;19928;-68
2024/01/23 00:58:25;;;;;;;;;;;;;;;7.01;100.00;101694.97;4995931;28;19925;-70
2024/01/23 01:00:50;;;;;;;;;;;;;;;7.02;100.00;101706.50;4997441;28;19968;-70
2024/01/23 01:03:16;;;;;;;;;;;;;;;7.00;100.00;101709.25;4997706;28;20012;-70
2024/01/23 01:05:41;;;;;;;;;;;;;;;6.88;100.00;101697.38;4995262;28;19978;-70
2024/01/23 01:08:07;;;;;;;;;;;;;;;7.08;100.00;101724.03;4997176;28;20383;-70
2024/01/23 01:10:32;;;;;;;;;;;;;;;7.01;100.00;101734.16;4997894;28;20294;-69
2024/01/23 01:12:57;;;;;;;;;;;;;;;6.85;100.00;101729.53;4996026;28;20339;-68
2024/01/23 01:15:22;;;;;;;;;;;;;;;6.83;100.00;101726.06;4994679;28;20331;-69
2024/01/23 01:17:48;;;;;;;;;;;;;;;6.94;100.00;101735.38;4995487;28;20343;-70
2024/01/23 01:20:13;;;;;;;;;;;;;;;6.92;100.00;101731.94;4997534;28;19933;-69
2024/01/23 01:22:38;;;;;;;;;;;;;;;6.78;100.00;101741.44;4993195;28;19961;-69
2024/01/23 01:25:04;;;;;;;;;;;;;;;6.72;100.00;101739.94;4996922;28;19925;-69
2024/01/23 01:27:29;;;;;;;;;;;;;;;6.70;100.00;101752.50;4995706;28;20421;-68
2024/01/23 01:29:55;;;;;;;;;;;;;;;6.67;100.00;101762.44;4996655;28;20272;-71
2024/01/23 01:32:20;;;;;;;;;;;;;;;6.63;100.00;101756.38;4993998;28;20171;-68
2024/01/23 01:34:45;;;;;;;;;;;;;;;6.65;100.00;101759.84;4995965;28;19928;-69
2024/01/23 01:37:10;;;;;;;;;;;;;;;6.66;100.00;101766.06;4995123;28;19927;-69
2024/01/23 01:39:37;;;;;;;;;;;;;;;6.50;100.00;101785.41;4992434;28;19941;-69
2024/01/23 01:42:02;;;;;;;;;;;;;;;6.43;100.00;101787.50;4996232;28;20052;-69
2024/01/23 01:44:29;;;;;;;;;;;;;;;6.45;100.00;101785.63;4990460;28;20022;-69
2024/01/23 01:46:54;;;;;;;;;;;;;;;6.37;100.00;101794.94;4994408;28;20052;-70
2024/01/23 01:49:19;;;;;;;;;;;;;;;6.36;100.00;101780.72;4995575;28;20722;-68
2024/01/23 01:51:46;;;;;;;;;;;;;;;6.22;100.00;101784.03;4993830;28;20431;-68
2024/01/23 01:54:11;;;;;;;;;;;;;;;6.27;100.00;101786.47;4977643;28;20568;-70
2024/01/23 01:56:36;;;;;;;;;;;;;;;6.21;100.00;101792.97;4995962;28;19960;-69
2024/01/23 01:59:02;;;;;;;;;;;;;;;6.13;100.00;101795.94;4994104;28;20356;-69
2024/01/23 02:01:27;;;;;;;;;;;;;;;6.05;100.00;101807.88;4994769;28;19932;-69
2024/01/23 02:03:53;;;;;;;;;;;;;;;6.03;100.00;101812.41;4995768;28;19921;-69
2024/01/23 02:06:18;;;;;;;;;;;;;;;5.99;100.00;101815.16;4993912;28;19926;-68
2024/01/23 02:08:44;;;;;;;;;;;;;;;6.07;100.00;101806.91;4996089;28;19984;-69
2024/01/23 02:11:09;;;;;;;;;;;;;;;6.10;100.00;101819.22;4993441;28;19929;-68
2024/01/23 02:13:35;;;;;;;;;;;;;;;6.00;100.00;101819.59;4995610;28;20288;-70
2024/01/23 02:16:00;;;;;;;;;;;;;;;6.09;100.00;101825.47;4992472;28;20394;-70
2024/01/23 02:18:25;;;;;;;;;;;;;;;6.08;100.00;101831.75;4995417;28;19921;-68
2024/01/23 02:20:51;;;;;;;;;;;;;;;6.02;100.00;101837.34;4995099;28;19921;-69
2024/01/23 02:23:16;;;;;;;;;;;;;;;6.02;100.00;101834.66;4994900;28;19922;-69
2024/01/23 02:25:42;;;;;;;;;;;;;;;5.96;100.00;101849.09;4992448;28;20279;-69
2024/01/23 02:28:08;;;;;;;;;;;;;;;5.92;100.00;101853.69;4993508;28;19917;-69
2024/01/23 02:30:34;;;;;;;;;;;;;;;5.91;100.00;101848.41;4988005;28;19933;-69
2024/01/23 02:33:00;;;;;;;;;;;;;;;5.85;100.00;101865.53;4991513;28;19957;-69
2024/01/23 02:35:25;;;;;;;;;;;;;;;5.96;100.00;101867.75;4994963;28;20619;-69
2024/01/23 02:37:50;;;;;;;;;;;;;;;5.93;100.00;101868.78;4997574;28;20380;-70
2024/01/23 02:40:15;;;;;;;;;;;;;;;5.91;100.00;101877.75;4996485;28;20410;-70
2024/01/23 02:42:41;;;;;;;;;;;;;;;5.84;100.00;101874.47;4994720;28;19921;-69
2024/01/23 02:45:06;;;;;;;;;;;;;;;5.77;100.00;101888.97;4996495;28;20186;-70
2024/01/23 02:47:31;;;;;;;;;;;;;;;5.81;100.00;101904.78;4996929;28;19960;-70
2024/01/23 02:49:56;;;;;;;;;;;;;;;5.86;100.00;101907.25;4997986;28;19921;-70
2024/01/23 02:52:21;;;;;;;;;;;;;;;5.83;100.00;101907.38;4995881;28;19979;-70
2024/01/23 02:54:47;;;;;;;;;;;;;;;5.86;100.00;101907.25;5001583;28;19995;-70
2024/01/23 02:57:13;;;;;;;;;;;;;;;5.92;100.00;101916.78;4998782;28;20008;-70
2024/01/23 02:59:39;;;;;;;;;;;;;;;5.89;100.00;101920.47;5001164;28;19927;-69
2024/01/23 03:02:04;;;;;;;;;;;;;;;5.93;100.00;101930.06;5000318;28;19918;-69
2024/01/23 03:04:29;;;;;;;;;;;;;;;5.94;100.00;101933.59;4999653;28;20284;-69
2024/01/23 03:06:54;;;;;;;;;;;;;;;5.92;100.00;101941.66;4997416;28;20494;-70
2024/01/23 03:09:20;;;;;;;;;;;;;;;5.93;100.00;101937.19;4999034;28;19925;-69
2024/01/23 03:11:45;;;;;;;;;;;;;;;5.86;100.00;101945.44;4997622;28;19928;-69
2024/01/23 03:14:11;;;;;;;;;;;;;;;5.81;100.00;101951.88;4997623;28;19959;-70
2024/01/23 03:16:36;;;;;;;;;;;;;;;5.94;100.00;101945.16;4996722;28;19944;-70
2024/01/23 03:19:02;;;;;;;;;;;;;;;5.90;100.00;101947.97;4996146;28;20383;-69
2024/01/23 03:21:28;;;;;;;;;;;;;;;5.94;100.00;101945.16;4997549;28;19956;-69
2024/01/23 03:23:53;;;;;;;;;;;;;;;6.00;100.00;101952.91;4999506;28;19963;-70
2024/01/23 03:26:18;;;;;;;;;;;;;;;5.95;100.00;101954.00;4993928;28;19984;-69
2024/01/23 03:28:43;;;;;;;;;;;;;;;5.96;100.00;101945.91;4995921;28;19925;-69
2024/01/23 03:31:09;;;;;;;;;;;;;;;6.05;100.00;101957.19;4999416;28;20042;-70
2024/01/23 03:33:34;;;;;;;;;;;;;;;6.04;100.00;101961.66;4991888;28;20012;-69
2024/01/23 03:35:59;;;;;;;;;;;;;;;5.96;100.00;101959.25;4995982;28;19925;-69
2024/01/23 03:38:24;;;;;;;;;;;;;;;5.96;100.00;101964.59;4996666;28;19963;-69
2024/01/23 03:40:50;;;;;;;;;;;;;;;5.98;100.00;101975.19;4988040;28;19933;-69
2024/01/23 03:43:15;;;;;;;;;;;;;;;5.96;100.00;101982.38;4993885;28;19925;-69
2024/01/23 03:45:40;;;;;;;;;;;;;;;5.99;100.00;101988.44;4996986;28;19981;-69
2024/01/23 03:48:06;;;;;;;;;;;;;;;5.93;100.00;101993.16;4996418;28;20020;-69
2024/01/23 03:50:31;;;;;;;;;;;;;;;5.95;100.00;102001.97;4997270;28;19925;-69
2024/01/23 03:52:56;;;;;;;;;;;;;;;5.95;100.00;101999.31;4997850;28;19925;-69
2024/01/23 03:55:22;;;;;;;;;;;;;;;5.92;100.00;102002.09;4995188;28;19964;-69
2024/01/23 03:57:47;;;;;;;;;;;;;;;5.76;100.00;102004.50;4995793;28;19976;-69
2024/01/23 04:00:13;;;;;;;;;;;;;;;5.81;100.00;102019.41;4995855;28;20027;-69
2024/01/23 04:02:38;;;;;;;;;;;;;;;5.77;100.00;102022.22;4997460;28;20310;-69
2024/01/23 04:05:06;;;;;;;;;;;;;;;5.73;100.00;102028.59;4996142;28;19929;-69
2024/01/23 04:07:32;;;;;;;;;;;;;;;5.70;100.00;102024.25;4993634;28;20023;-70
2024/01/23 04:09:57;;;;;;;;;;;;;;;5.63;100.00;102034.28;4993177;28;20431;-69
2024/01/23 04:12:22;;;;;;;;;;;;;;;5.61;100.00;102040.59;4995581;28;20475;-69
2024/01/23 04:14:48;;;;;;;;;;;;;;;5.52;100.00;102039.13;4995098;28;20527;-69
2024/01/23 04:17:13;;;;;;;;;;;;;;;5.51;100.00;102042.72;4994342;28;19991;-69
2024/01/23 04:19:38;;;;;;;;;;;;;;;5.48;100.00;102035.72;4993930;28;19917;-68
2024/01/23 04:22:03;;;;;;;;;;;;;;;5.44;100.00;102039.44;4994615;28;19928;-69
2024/01/23 04:24:29;;;;;;;;;;;;;;;5.40;100.00;102044.00;4995940;28;19971;-69
2024/01/23 04:26:54;;;;;;;;;;;;;;;5.37;100.00;102052.13;4993710;28;19925;-69
2024/01/23 04:29:19;;;;;;;;;;;;;;;5.38;100.00;102063.63;4996616;28;19957;-69
2024/01/23 04:31:44;;;;;;;;;;;;;;;5.35;100.00;102063.72;4998012;28;20000;-70
2024/01/23 04:34:09;;;;;;;;;;;;;;;5.18;100.00;102043.03;4995285;28;19927;-69
2024/01/23 04:36:35;;;;;;;;;;;;;;;5.28;100.00;102060.44;4995405;28;19931;-69
2024/01/23 04:39:00;;;;;;;;;;;;;;;5.32;100.00;102069.16;4995710;28;19921;-69
2024/01/23 04:41:26;;;;;;;;;;;;;;;5.29;100.00;102078.16;5000766;28;19921;-68
2024/01/23 04:43:51;;;;;;;;;;;;;;;5.28;100.00;102095.03;5000446;28;19928;-68
2024/01/23 04:46:16;;;;;;;;;;;;;;;5.25;100.00;102093.38;4996874;28;19925;-69
2024/01/23 04:48:42;;;;;;;;;;;;;;;5.29;100.00;102101.25;5001944;28;19922;-70
2024/01/23 04:51:07;;;;;;;;;;;;;;;5.25;100.00;102120.00;5002039;28;19928;-69
2024/01/23 04:53:32;;;;;;;;;;;;;;;5.14;100.00;102123.97;4994442;28;19922;-69
2024/01/23 04:55:58;;;;;;;;;;;;;;;5.14;100.00;102114.16;4994545;28;20628;-68
2024/01/23 04:58:23;;;;;;;;;;;;;;;5.15;100.00;102112.38;4994665;28;19929;-70
2024/01/23 05:00:48;;;;;;;;;;;;;;;5.23;100.00;102113.84;4993388;28;19929;-69
2024/01/23 05:03:14;;;;;;;;;;;;;;;5.18;100.00;102133.56;5001725;28;19922;-69
2024/01/23 05:05:39;;;;;;;;;;;;;;;5.21;100.00;102138.78;4998608;28;19929;-69
2024/01/23 05:08:05;;;;;;;;;;;;;;;5.17;100.00;102147.78;4997953;28;19925;-69
2024/01/23 05:10:30;;;;;;;;;;;;;;;5.16;100.00;102151.41;4984742;28;20148;-68
2024/01/23 05:12:55;;;;;;;;;;;;;;;5.22;100.00;102164.50;5006539;28;19979;-70
2024/01/23 05:15:20;;;;;;;;;;;;;;;5.17;100.00;102166.44;4995768;28;19968;-68
2024/01/23 05:17:46;;;;;;;;;;;;;;;5.15;100.00;102173.63;4996875;28;20001;-69
2024/01/23 05:20:11;;;;;;;;;;;;;;;5.12;100.00;102185.22;4997067;28;20225;-68
2024/01/23 05:22:36;;;;;;;;;;;;;;;5.22;100.00;102196.44;4991650;28;20179;-69
2024/01/23 05:25:02;;;;;;;;;;;;;;;5.06;100.00;102180.09;4994680;28;20368;-68
2024/01/23 05:27:28;;;;;;;;;;;;;;;5.12;100.00;102190.56;4995881;28;19921;-69
2024/01/23 05:29:53;;;;;;;;;;;;;;;5.09;100.00;102191.53;4996183;28;20346;-69
2024/01/23 05:32:18;;;;;;;;;;;;;;;5.01;100.00;102193.56;4996964;28;19967;-68
2024/01/23 05:34:43;;;;;;;;;;;;;;;4.93;100.00;102196.50;4994682;28;20019;-69
2024/01/23 05:37:10;;;;;;;;;;;;;;;4.94;100.00;102198.25;4998664;28;19921;-69
2024/01/23 05:39:36;;;;;;;;;;;;;;;4.87;100.00;102196.69;4991013;28;20600;-70
2024/01/23 05:42:01;;;;;;;;;;;;;;;4.92;100.00;102199.19;5001603;28;19922;-71
2024/01/23 05:44:26;;;;;;;;;;;;;;;4.92;100.00;102212.50;5002417;28;19925;-70
2024/01/23 05:46:51;;;;;;;;;;;;;;;4.92;100.00;102226.69;5001141;28;19922;-70
2024/01/23 05:49:17;;;;;;;;;;;;;;;4.93;100.00;102224.88;5001273;28;19922;-70
2024/01/23 05:51:42;;;;;;;;;;;;;;;4.87;100.00;102230.44;4974494;28;19961;-70
2024/01/23 05:54:09;;;;;;;;;;;;;;;4.86;100.00;102244.66;5000626;28;20056;-70
2024/01/23 05:56:34;;;;;;;;;;;;;;;4.85;100.00;102249.09;4991098;28;19922;-70
2024/01/23 05:59:00;;;;;;;;;;;;;;;4.84;100.00;102252.66;5000304;28;19941;-69
2024/01/23 06:01:25;;;;;;;;;;;;;;;4.77;100.00;102251.09;4998380;28;19921;-70
2024/01/23 06:03:51;;;;;;;;;;;;;;;4.88;100.00;102254.31;5000979;28;19925;-70
2024/01/23 06:06:18;;;;;;;;;;;;;;;4.93;100.00;102248.84;5000548;28;19929;-70
2024/01/23 06:08:44;;;;;;;;;;;;;;;4.87;100.00;102246.41;5000042;28;19929;-70
2024/01/23 06:11:09;;;;;;;;;;;;;;;4.80;100.00;102254.56;5001220;28;19921;-70
2024/01/23 06:13:34;;;;;;;;;;;;;;;4.91;100.00;102251.56;5001763;28;19962;-70
2024/01/23 06:15:59;;;;;;;;;;;;;;;4.82;100.00;102262.47;4991049;28;20017;-70
2024/01/23 06:18:25;;;;;;;;;;;;;;;4.79;100.00;102260.81;4991243;28;19921;-70
2024/01/23 06:20:50;;;;;;;;;;;;;;;4.84;100.00;102260.66;4996086;28;19959;-70
2024/01/23 06:23:15;;;;;;;;;;;;;;;4.81;100.00;102271.38;4993466;28;20060;-70
2024/01/23 06:25:40;;;;;;;;;;;;;;;4.73;100.00;102278.75;4996526;28;20363;-70
2024/01/23 06:28:06;;;;;;;;;;;;;;;4.76;100.00;102286.66;4999409;28;20395;-70
2024/01/23 06:30:31;;;;;;;;;;;;;;;4.73;100.00;102289.41;5002228;28;20434;-70
2024/01/23 06:32:57;;;;;;;;;;;;;;;4.75;100.00;102295.53;4993493;28;20423;-70
2024/01/23 06:35:22;;;;;;;;;;;;;;;4.65;100.00;102298.47;5002213;28;20371;-70
2024/01/23 06:37:47;;;;;;;;;;;;;;;4.65;100.00;102309.09;5005961;28;19941;-70
2024/01/23 06:40:12;;;;;;;;;;;;;;;4.56;100.00;102306.72;5000391;28;20341;-70
2024/01/23 06:42:38;;;;;;;;;;;;;;;4.57;100.00;102316.44;4999368;28;20382;-71
2024/01/23 06:45:04;;;;;;;;;;;;;;;4.57;100.00;102326.22;4994535;28;20372;-70
2024/01/23 06:47:29;;;;;;;;;;;;;;;4.55;100.00;102317.41;4999455;28;20109;-70
2024/01/23 06:49:54;;;;;;;;;;;;;;;4.63;100.00;102321.59;4991804;28;19953;-71
2024/01/23 06:52:20;;;;;;;;;;;;;;;4.53;100.00;102329.88;4998065;28;20067;-70
2024/01/23 06:54:45;;;;;;;;;;;;;;;4.40;100.00;102337.31;4998839;28;20441;-69
2024/01/23 06:57:10;;;;;;;;;;;;;;;4.28;100.00;102336.72;4996718;28;19925;-69
2024/01/23 06:59:35;;;;;;;;;;;;;;;4.26;100.00;102346.53;4999042;28;19921;-70
2024/01/23 07:02:01;;;;;;;;;;;;;;;4.25;100.00;102347.44;4999234;28;20071;-70
2024/01/23 07:04:26;;;;;;;;;;;;;;;4.31;100.00;102343.78;4999285;28;19925;-70
2024/01/23 07:06:51;;;;;;;;;;;;;;;4.28;100.00;102347.38;4998285;28;20395;-69
2024/01/23 07:09:16;;;;;;;;;;;;;;;4.24;100.00;102348.38;4998870;28;20362;-70
2024/01/23 07:11:41;;;;;;;;;;;;;;;4.21;100.00;102345.81;4999531;28;20325;-70
2024/01/23 07:14:07;;;;;;;;;;;;;;;4.21;100.00;102351.13;4999582;28;20315;-70
2024/01/23 07:16:32;;;;;;;;;;;;;;;4.26;100.00;102359.84;4999072;28;20279;-70
2024/01/23 07:18:58;;;;;;;;;;;;;;;4.19;100.00;102361.78;4994633;28;19928;-70
2024/01/23 07:21:23;;;;;;;;;;;;;;;4.27;100.00;102358.91;4993388;28;19957;-70
2024/01/23 07:23:48;;;;;;;;;;;;;;;4.15;100.00;102361.91;4999724;28;19921;-70
2024/01/23 07:26:13;;;;;;;;;;;;;;;4.12;100.00;102356.69;4998707;28;20305;-71
2024/01/23 07:28:39;;;;;;;;;;;;;;;4.19;100.00;102371.56;4997744;28;20386;-70
2024/01/23 07:31:04;;;;;;;;;;;;;;;4.12;100.00;102362.84;4997176;28;20385;-70
2024/01/23 07:33:29;;;;;;;;;;;;;;;4.13;100.00;102367.25;4997955;28;19957;-70
2024/01/23 07:35:55;;;;;;;;;;;;;;;4.10;100.00;102371.81;4980486;28;19928;-70
2024/01/23 07:38:20;;;;;;;;;;;;;;;4.04;100.00;102376.34;4998294;28;20508;-70
2024/01/23 07:40:45;;;;;;;;;;;;;;;4.05;100.00;102382.56;4997078;28;20434;-70
2024/01/23 07:43:10;;;;;;;;;;;;;;;4.05;100.00;102387.88;4994392;28;20500;-70
2024/01/23 07:45:36;;;;;;;;;;;;;;;4.00;100.00;102382.66;4995047;28;20039;-70
2024/01/23 07:48:01;;;;;;;;;;;;;;;3.93;100.00;102380.19;4995819;28;20540;-70
2024/01/23 07:50:27;;;;;;;;;;;;;;;3.98;100.00;102386.28;4994419;28;20327;-70
2024/01/23 07:52:52;;;;;;;;;;;;;;;4.04;100.00;102394.97;4993724;28;20230;-70
2024/01/23 07:55:17;;;;;;;;;;;;;;;4.11;100.00;102400.13;4991318;28;20168;-70
2024/01/23 07:57:43;;;;;;;;;;;;;;;4.13;100.00;102390.34;4994738;28;19929;-70
2024/01/23 08:00:09;;;;;;;;;;;;;;;4.13;100.00;102414.25;4993018;28;19932;-70
2024/01/23 08:02:34;;;;;;;;;;;;;;;4.19;100.00;102414.09;4991168;28;21154;-69
2024/01/23 08:05:00;;;;;;;;;;;;;;;4.14;100.00;102430.16;4994418;28;20267;-70
2024/01/23 08:07:25;;;;;;;;;;;;;;;4.12;100.00;102426.66;4973855;28;19936;-70
2024/01/23 08:09:50;;;;;;;;;;;;;;;4.20;100.00;102431.81;4997475;28;19984;-70
2024/01/23 08:12:16;;;;;;;;;;;;;;;4.24;100.00;102435.25;4976728;28;20175;-70
2024/01/23 08:14:41;;;;;;;;;;;;;;;4.30;100.00;102443.94;4975487;28;19921;-70
2024/01/23 08:17:06;;;;;;;;;;;;;;;4.36;100.00;102440.25;4996648;28;19925;-70
2024/01/23 08:19:32;;;;;;;;;;;;;;;4.47;100.00;102442.63;4996556;28;20360;-70
2024/01/23 08:21:57;;;;;;;;;;;;;;;4.46;100.00;102454.19;4991539;28;20107;-69
2024/01/23 08:24:22;;;;;;;;;;;;;;;4.45;100.00;102452.44;4996189;28;20327;-70
2024/01/23 08:26:52;;;;;;;;;;;;;;;4.52;100.00;102453.16;4993198;28;20372;-70
2024/01/23 08:29:17;;;;;;;;;;;;;;;4.69;100.00;102463.34;4996467;28;19925;-70
2024/01/23 08:31:42;;;;;;;;;;;;;;;4.73;100.00;102465.00;4993202;28;19921;-70
2024/01/23 08:34:07;;;;;;;;;;;;;;;4.83;100.00;102466.50;4994688;28;19963;-70
2024/01/23 08:36:33;;;;;;;;;;;;;;;4.92;100.00;102476.00;4995145;28;19947;-70
2024/01/23 08:38:58;;;;;;;;;;;;;;;5.01;100.00;102473.09;4999420;28;19925;-70
2024/01/23 08:41:23;;;;;;;;;;;;;;;5.19;100.00;102476.13;4995155;28;19956;-70
2024/01/23 08:43:49;;;;;;;;;;;;;;;5.24;100.00;102479.53;4993750;28;20085;-70
2024/01/23 08:46:14;;;;;;;;;;;;;;;5.36;100.00;102492.53;4995935;28;19933;-70
2024/01/23 08:48:39;;;;;;;;;;;;;;;5.40;100.00;102496.84;4998245;28;19921;-70
2024/01/23 08:51:04;;;;;;;;;;;;;;;5.51;100.00;102496.53;4992024;28;20179;-70
2024/01/23 08:53:30;;;;;;;;;;;;;;;5.66;100.00;102497.84;4997207;28;19928;-70
2024/01/23 08:55:55;;;;;;;;;;;;;;;5.78;100.00;102504.59;4980002;28;20332;-70
2024/01/23 08:58:20;;;;;;;;;;;;;;;5.82;100.00;102500.03;4996131;28;19922;-70
2024/01/23 09:00:45;;;;;;;;;;;;;;;5.74;100.00;102507.38;4996774;28;20012;-70
2024/01/23 09:03:11;;;;;;;;;;;;;;;5.85;100.00;102500.81;4996999;28;19968;-70
2024/01/23 09:05:36;;;;;;;;;;;;;;;5.79;100.00;102508.13;4996061;28;20052;-71
2024/01/23 09:08:01;;;;;;;;;;;;;;;5.74;100.00;102507.38;4995009;28;19925;-70
2024/01/23 09:10:27;;;;;;;;;;;;;;;5.77;100.00;102512.63;4998230;28;20012;-70
2024/01/23 09:12:53;;;;;;;;;;;;;;;5.93;100.00;102511.25;4994347;28;20244;-70
2024/01/23 09:15:18;;;;;;;;;;;;;;;5.84;100.00;102498.19;4997262;28;19928;-70
2024/01/23 09:17:43;;;;;;;;;;;;;;;5.93;100.00;102508.59;4998452;28;20127;-70
2024/01/23 09:20:09;;;;;;;;;;;;;;;5.97;100.00;102506.69;5005836;28;19913;-70
2024/01/23 09:22:34;;;;;;;;;;;;;;;6.04;100.00;102507.38;4992614;28;19956;-70
2024/01/23 09:25:01;;;;;;;;;;;;;;;6.13;100.00;102510.63;4996645;28;20364;-71
2024/01/23 09:27:26;;;;;;;;;;;;;;;6.12;100.00;102505.34;4995629;28;19925;-70
2024/01/23 09:29:52;;;;;;;;;;;;;;;6.20;100.00;102492.66;4996767;28;20284;-70
2024/01/23 09:32:17;;;;;;;;;;;;;;;6.43;100.00;102493.66;4996647;28;19925;-70
2024/01/23 09:34:43;;;;;;;;;;;;;;;6.45;100.00;102491.81;4998435;28;19924;-70
2024/01/23 09:37:09;;;;;;;;;;;;;;;6.51;100.00;102496.94;4995881;28;19918;-70
2024/01/23 09:39:34;;;;;;;;;;;;;;;6.53;100.00;102515.56;4999706;28;19924;-70
2024/01/23 09:42:00;;;;;;;;;;;;;;;6.68;100.00;102504.34;4996106;28;19972;-70
2024/01/23 09:44:26;;;;;;;;;;;;;;;6.90;100.00;102504.50;4998321;28;19929;-70
2024/01/23 09:46:51;;;;;;;;;;;;;;;7.14;100.00;102501.84;4994324;28;20295;-70
2024/01/23 09:49:16;;;;;;;;;;;;;;;7.59;100.00;102515.34;4997519;28;19972;-69
2024/01/23 09:51:42;;;;;;;;;;;;;;;7.64;100.00;102516.91;5010492;28;20036;-70
2024/01/23 09:54:08;;;;;;;;;;;;;;;7.76;100.00;102514.69;4998071;28;19921;-70
2024/01/23 09:56:33;;;;;;;;;;;;;;;7.68;100.00;102522.16;4997520;28;19926;-73
2024/01/23 09:58:58;;;;;;;;;;;;;;;7.42;100.00;102522.19;4995725;28;19921;-71
2024/01/23 10:01:23;;;;;;;;;;;;;;;7.79;100.00;102520.81;4997884;28;20904;-70
2024/01/23 10:03:49;;;;;;;;;;;;;;;7.65;100.00;102523.13;4994570;28;20309;-70
2024/01/23 10:06:14;;;;;;;;;;;;;;;7.52;100.00;102529.88;4992088;28;19956;-70
2024/01/23 10:08:40;;;;;;;;;;;;;;;7.90;100.00;102530.19;4996575;28;20023;-70
2024/01/23 10:11:05;;;;;;;;;;;;;;;8.18;100.00;102532.66;4996765;28;19921;-70
2024/01/23 10:13:30;;;;;;;;;;;;;;;8.11;100.00;102526.66;4996292;28;19973;-70
2024/01/23 10:15:56;;;;;;;;;;;;;;;8.47;100.00;102525.22;4994434;28;20036;-70
2024/01/23 10:18:21;;;;;;;;;;;;;;;8.60;100.00;102524.72;4996068;28;20033;-70
2024/01/23 10:20:47;;;;;;;;;;;;;;;8.55;100.00;102524.94;4995338;28;19998;-70
2024/01/23 10:23:12;;;;;;;;;;;;;;;8.54;100.00;102516.00;4995479;28;20025;-70
2024/01/23 10:25:38;;;;;;;;;;;;;;;8.94;100.00;102524.13;4997213;28;19975;-70
2024/01/23 10:28:06;;;;;;;;;;;;;;;9.04;100.00;102518.38;4997997;28;19918;-71
2024/01/23 10:30:31;;;;;;;;;;;;;;;8.74;100.00;102524.97;4995453;28;20032;-70
2024/01/23 10:32:58;;;;;;;;;;;;;;;8.77;100.00;102529.34;4989204;28;20406;-71
2024/01/23 10:35:24;;;;;;;;;;;;;;;9.12;100.00;102518.91;4996148;28;19937;-71
2024/01/23 10:37:49;;;;;;;;;;;;;;;9.18;100.00;102529.31;4995433;28;20012;-71
2024/01/23 10:40:15;;;;;;;;;;;;;;;9.57;100.00;102531.13;4994406;28;19994;-71
2024/01/23 10:42:40;;;;;;;;;;;;;;;9.43;100.00;102533.56;4997595;28;19921;-70
2024/01/23 10:45:06;;;;;;;;;;;;;;;9.52;100.00;102524.25;4997604;28;20410;-71
2024/01/23 10:47:31;;;;;;;;;;;;;;;9.83;100.00;102515.63;4994857;28;20160;-70
2024/01/23 10:49:56;;;;;;;;;;;;;;;9.66;100.00;102512.88;4996648;28;19971;-71
2024/01/23 10:52:21;;;;;;;;;;;;;;;9.87;100.00;102497.56;4997151;28;19921;-70
2024/01/23 10:54:47;;;;;;;;;;;;;;;9.65;100.00;102527.25;5003873;28;19928;-71
2024/01/23 10:57:21;;;;;;;;;;;;;;;8.95;100.00;102523.19;4992825;28;19995;-71
2024/01/23 10:59:47;;;;;;;;;;;;;;;8.83;100.00;102507.66;4993026;28;20032;-71
2024/01/23 11:02:33;;;;;;;;;;;;;;;9.59;100.00;102494.41;4987884;28;19921;-70
2024/01/23 11:04:58;;;;;;;;;;;;;;;9.76;100.00;102492.72;4989395;28;19925;-71
2024/01/23 11:07:28;;;;;;;;;;;;;;;10.01;100.00;102496.88;4995897;28;20467;-71
2024/01/23 11:09:56;;;;;;;;;;;;;;;9.35;100.00;102515.16;4994911;28;19918;-72
2024/01/23 11:12:22;;;;;;;;;;;;;;;9.09;100.00;102503.81;4996949;28;19965;-71
2024/01/23 11:14:51;;;;;;;;;;;;;;;8.76;100.00;102503.50;5001231;28;19961;-70
2024/01/23 11:17:17;;;;;;;;;;;;;;;8.61;100.00;102497.00;5011416;28;19922;-71
2024/01/23 11:19:43;;;;;;;;;;;;;;;8.51;100.00;102491.19;4990565;28;19968;-70
2024/01/23 11:22:11;;;;;;;;;;;;;;;8.28;100.00;102476.94;4999254;28;20721;-71
2024/01/23 11:24:39;;;;;;;;;;;;;;;8.06;100.00;102469.81;5000099;28;20115;-71
2024/01/23 11:27:04;;;;;;;;;;;;;;;8.29;100.00;102459.06;4998610;28;19996;-71
2024/01/23 11:29:29;;;;;;;;;;;;;;;8.53;100.00;102455.38;5000611;28;19922;-70
2024/01/23 11:31:55;;;;;;;;;;;;;;;8.54;100.00;102446.41;4993643;28;20319;-71
2024/01/23 11:34:23;;;;;;;;;;;;;;;8.92;100.00;102428.72;4998298;28;20340;-70
2024/01/23 11:36:48;;;;;;;;;;;;;;;9.28;100.00;102428.81;4998662;28;19921;-70
2024/01/23 11:39:19;;;;;;;;;;;;;;;8.64;100.00;102446.88;5003375;28;19967;-71
2024/01/23 11:41:48;;;;;;;;;;;;;;;8.56;100.00;102459.72;5003595;28;19926;-71
2024/01/23 11:44:14;;;;;;;;;;;;;;;8.49;100.00;102469.81;5005849;28;19918;-71
2024/01/23 11:46:39;;;;;;;;;;;;;;;8.25;100.00;102459.19;4996830;28;19925;-70
2024/01/23 11:49:04;;;;;;;;;;;;;;;8.09;100.00;102415.28;4998485;28;19917;-70
2024/01/23 11:51:30;;;;;;;;;;;;;;;7.97;100.00;102432.72;4998002;28;20466;-70
2024/01/23 11:53:58;;;;;;;;;;;;;;;7.93;100.00;102425.75;4998691;28;19955;-70
2024/01/23 11:56:23;;;;;;;;;;;;;;;7.71;100.00;102429.31;4999616;28;20019;-71
2024/01/23 11:58:49;;;;;;;;;;;;;;;7.82;100.00;102426.22;5000701;28;20345;-70
2024/01/23 12:01:15;;;;;;;;;;;;;;;7.88;100.00;102423.28;5000358;28;20314;-70
2024/01/23 12:03:47;;;;;;;;;;;;;;;7.91;100.00;102412.47;4999641;28;20374;-70
2024/01/23 12:06:13;;;;;;;;;;;;;;;7.83;100.00;102408.34;4996247;28;19925;-71
2024/01/23 12:08:38;;;;;;;;;;;;;;;7.99;100.00;102408.56;4999111;28;19975;-71
2024/01/23 12:11:04;;;;;;;;;;;;;;;8.13;100.00;102405.31;4999945;28;21001;-71
2024/01/23 12:13:29;;;;;;;;;;;;;;;8.60;100.00;102393.53;4999595;28;20371;-72
2024/01/23 12:15:54;;;;;;;;;;;;;;;9.51;100.00;102397.34;4997104;28;21399;-71
2024/01/23 12:18:21;;;;;;;;;;;;;;;8.98;100.00;102389.09;5000156;28;19928;-71
2024/01/23 12:20:47;;;;;;;;;;;;;;;8.79;100.00;102398.94;4996936;28;19921;-71
2024/01/23 12:23:13;;;;;;;;;;;;;;;9.00;100.00;102384.53;4973193;28;19985;-71
2024/01/23 12:25:38;;;;;;;;;;;;;;;8.75;100.00;102382.13;4998318;28;19956;-71